Time;durP1;ratioP1;P1;durP2;ratioP2;P2;SDS_P1;SDS_P2;PMS_P1;PMS_P2;Temp;Humidity;BMP_temperature;BMP_pressure;BME280_temperature;BME280_humidity;BME280_pressure;Samples;Min_cycle;Max_cycle;Signal;HPM_P1;HPM_P2
2022/01/03 00:00:36;;;;;;;8.63;3.55;;;11.90;61.70;;;;;;5073080;28;20031;-82
2022/01/03 00:03:04;;;;;;;6.47;3.30;;;11.90;61.40;;;;;;5085291;28;20036;-82
2022/01/03 00:05:31;;;;;;;9.75;3.83;;;12.00;61.00;;;;;;5085968;28;20039;-82
2022/01/03 00:07:57;;;;;;;6.07;2.95;;;12.00;61.20;;;;;;5091134;28;20043;-82
2022/01/03 00:10:24;;;;;;;4.43;2.90;;;12.10;60.80;;;;;;5082970;28;20040;-83
2022/01/03 00:12:50;;;;;;;6.55;2.70;;;12.10;61.40;;;;;;5072079;28;20187;-83
2022/01/03 00:15:17;;;;;;;5.75;2.95;;;12.10;60.70;;;;;;5072579;28;20378;-81
2022/01/03 00:17:44;;;;;;;6.03;2.75;;;12.10;60.30;;;;;;5070334;28;20024;-83
2022/01/03 00:20:11;;;;;;;5.13;2.80;;;12.10;60.10;;;;;;5092642;28;20028;-83
2022/01/03 00:23:00;;;;;;;7.22;2.88;;;12.20;60.10;;;;;;5088689;28;20028;-82
2022/01/03 00:25:26;;;;;;;4.72;2.47;;;12.20;59.90;;;;;;5092482;28;20024;-81
2022/01/03 00:28:04;;;;;;;4.15;2.17;;;12.20;59.70;;;;;;5085527;28;20025;-81
2022/01/03 00:30:33;;;;;;;6.70;2.42;;;12.20;59.40;;;;;;5072514;28;20062;-81
2022/01/03 00:33:01;;;;;;;4.28;2.50;;;12.30;59.40;;;;;;5072523;28;20025;-70
2022/01/03 00:35:29;;;;;;;5.63;2.67;;;12.30;59.40;;;;;;5092983;28;20043;-82
2022/01/03 00:37:59;;;;;;;5.18;2.58;;;12.30;59.10;;;;;;5089488;28;20426;-81
2022/01/03 00:40:26;;;;;;;5.40;2.78;;;12.30;59.10;;;;;;5072813;28;20020;-82
2022/01/03 00:42:51;;;;;;;6.13;3.08;;;12.40;59.10;;;;;;5079627;28;20032;-82
2022/01/03 00:45:17;;;;;;;6.10;2.70;;;12.40;59.00;;;;;;5074455;28;20052;-84
2022/01/03 00:47:45;;;;;;;5.15;2.72;;;12.40;58.90;;;;;;5078862;28;20099;-82
2022/01/03 00:50:15;;;;;;;6.05;2.75;;;12.40;58.80;;;;;;5089958;28;20093;-82
2022/01/03 00:52:41;;;;;;;6.53;3.13;;;12.40;58.80;;;;;;5088535;28;20033;-84
2022/01/03 00:55:07;;;;;;;7.78;2.88;;;12.40;58.70;;;;;;5075411;28;20035;-82
2022/01/03 00:57:57;;;;;;;5.80;3.33;;;12.50;58.80;;;;;;5096478;28;20029;-83
2022/01/03 01:00:23;;;;;;;7.00;3.38;;;12.50;58.50;;;;;;5071425;28;20029;-81
2022/01/03 01:03:10;;;;;;;6.18;3.22;;;12.50;58.40;;;;;;5081307;28;20395;-81
2022/01/03 01:05:41;;;;;;;7.05;2.90;;;12.60;58.60;;;;;;5088618;28;20020;-82
2022/01/03 01:08:07;;;;;;;5.97;3.00;;;12.60;58.60;;;;;;5085289;28;20024;-76
2022/01/03 01:10:36;;;;;;;6.95;3.42;;;12.60;58.40;;;;;;5074770;28;20086;-80
2022/01/03 01:13:04;;;;;;;7.30;3.08;;;12.60;58.40;;;;;;5086511;28;20044;-71
2022/01/03 01:15:30;;;;;;;6.13;3.20;;;12.70;58.20;;;;;;5093925;28;20024;-81
2022/01/03 01:17:57;;;;;;;8.63;3.60;;;12.70;58.10;;;;;;5094984;28;20031;-81
2022/01/03 01:20:41;;;;;;;8.07;3.20;;;12.70;58.00;;;;;;5095602;28;20404;-82
2022/01/03 01:23:09;;;;;;;6.90;2.70;;;12.70;57.80;;;;;;5093626;28;20024;-82
2022/01/03 01:28:06;;;;;;;5.70;3.15;;;12.80;58.00;;;;;;5083406;28;20084;-82
2022/01/03 01:30:33;;;;;;;7.32;2.50;;;12.80;57.90;;;;;;5081549;28;20066;-82
2022/01/03 01:33:12;;;;;;;6.50;2.65;;;12.80;57.80;;;;;;5096276;28;20024;-81
2022/01/03 01:35:42;;;;;;;8.57;3.05;;;12.80;57.70;;;;;;5094214;28;20024;-83
2022/01/03 01:38:11;;;;;;;5.88;2.95;;;12.80;57.80;;;;;;5078408;28;20051;-83
2022/01/03 01:40:53;;;;;;;7.57;2.70;;;12.90;57.60;;;;;;5082644;28;20028;-82
2022/01/03 01:43:33;;;;;;;5.38;2.67;;;12.90;57.10;;;;;;5087051;28;20040;-82
2022/01/03 01:46:03;;;;;;;6.43;2.90;;;12.90;57.10;;;;;;5091848;28;20032;-82
2022/01/03 01:48:33;;;;;;;5.68;2.70;;;12.90;57.20;;;;;;5093802;28;20113;-81
2022/01/03 01:51:00;;;;;;;5.35;2.85;;;12.90;57.10;;;;;;5094084;28;20050;-78
2022/01/03 01:53:27;;;;;;;4.93;2.30;;;13.00;56.90;;;;;;5073885;28;20060;-81
2022/01/03 01:55:55;;;;;;;4.30;2.47;;;13.00;56.60;;;;;;5074562;28;20543;-83
2022/01/03 01:58:29;;;;;;;5.07;2.65;;;13.10;56.60;;;;;;5081287;28;20047;-82
2022/01/03 02:01:01;;;;;;;6.82;2.10;;;13.10;56.00;;;;;;5080695;28;20024;-83
2022/01/03 02:03:45;;;;;;;5.88;2.60;;;13.20;56.10;;;;;;5062729;28;20029;-82
2022/01/03 02:06:39;;;;;;;10.75;3.13;;;13.30;55.40;;;;;;5084215;28;20111;-82
2022/01/03 02:09:09;;;;;;;;;;;13.40;54.80;;;;;;5074495;28;20037;-82
2022/01/03 02:11:49;;;;;;;5.40;2.60;;;13.50;54.80;;;;;;5087157;28;19923;-82
2022/01/03 02:14:15;;;;;;;5.75;2.72;;;13.50;54.60;;;;;;5074204;28;20100;-82
2022/01/03 02:16:42;;;;;;;4.90;2.40;;;13.60;54.50;;;;;;5090328;28;20024;-83
2022/01/03 02:19:09;;;;;;;4.53;2.28;;;13.60;54.10;;;;;;5093781;28;20046;-82
2022/01/03 02:21:34;;;;;;;4.65;2.42;;;13.60;54.10;;;;;;5095416;28;20052;-83
2022/01/03 02:24:02;;;;;;;6.00;2.60;;;13.70;53.80;;;;;;5093694;28;20507;-83
2022/01/03 02:26:28;;;;;;;9.98;2.83;;;13.70;54.10;;;;;;5094448;28;20032;-83
2022/01/03 02:28:54;;;;;;;6.50;2.50;;;13.70;54.00;;;;;;5093338;28;20028;-83
2022/01/03 02:31:21;;;;;;;6.10;2.60;;;13.70;53.90;;;;;;5094337;28;20032;-83
2022/01/03 02:33:47;;;;;;;5.38;2.85;;;13.70;53.90;;;;;;5080494;28;20107;-83
2022/01/03 02:36:14;;;;;;;6.28;2.60;;;13.70;53.60;;;;;;5074327;28;20098;-82
2022/01/03 02:38:40;;;;;;;6.28;2.60;;;13.70;53.80;;;;;;5075114;28;20032;-83
2022/01/03 02:41:05;;;;;;;7.05;2.67;;;13.80;53.80;;;;;;5073762;28;20456;-84
2022/01/03 02:43:31;;;;;;;4.47;2.25;;;13.80;53.70;;;;;;5089705;28;20072;-83
2022/01/03 02:48:41;;;;;;;;;;;13.80;53.70;;;;;;5084393;28;20043;-83
2022/01/03 02:51:06;;;;;;;5.28;2.72;;;13.80;53.20;;;;;;5083920;28;20006;-82
2022/01/03 02:53:32;;;;;;;9.13;2.55;;;13.80;53.70;;;;;;5093277;28;20447;-81
2022/01/03 02:55:58;;;;;;;5.82;2.97;;;13.80;53.60;;;;;;5094898;28;20020;-82
2022/01/03 02:58:25;;;;;;;6.00;2.67;;;13.80;53.70;;;;;;5090412;28;20483;-84
2022/01/03 03:00:52;;;;;;;5.55;2.80;;;13.80;54.30;;;;;;5095307;28;20046;-83
2022/01/03 03:03:20;;;;;;;8.82;2.60;;;13.80;53.70;;;;;;5091917;28;20031;-83
2022/01/03 03:05:46;;;;;;;7.95;2.92;;;13.80;53.90;;;;;;5091205;28;20051;-83
2022/01/03 03:08:13;;;;;;;4.30;2.38;;;13.70;53.80;;;;;;5094650;28;20028;-81
2022/01/03 03:10:39;;;;;;;6.90;2.33;;;13.80;53.90;;;;;;5095094;28;20039;-82
2022/01/03 03:13:05;;;;;;;4.47;2.35;;;13.80;54.20;;;;;;5096344;28;20107;-82
2022/01/03 03:15:31;;;;;;;6.90;2.50;;;13.70;54.30;;;;;;5087579;28;20070;-82
2022/01/03 03:17:57;;;;;;;6.68;2.50;;;13.80;54.50;;;;;;5080731;28;20033;-83
2022/01/03 03:20:28;;;;;;;4.85;2.50;;;13.80;54.40;;;;;;5079246;28;20028;-83
2022/01/03 03:22:55;;;;;;;4.18;2.40;;;13.70;54.40;;;;;;5078656;28;20046;-82
2022/01/03 03:25:35;;;;;;;5.43;2.38;;;13.80;54.40;;;;;;5085922;28;20020;-82
2022/01/03 03:28:03;;;;;;;5.13;2.45;;;13.70;54.40;;;;;;5076950;28;20111;-82
2022/01/03 03:30:36;;;;;;;6.85;2.47;;;13.70;54.40;;;;;;5072471;28;20112;-82
2022/01/03 03:33:10;;;;;;;5.82;2.25;;;13.70;54.70;;;;;;5076142;28;20114;-83
2022/01/03 03:35:36;;;;;;;5.50;2.45;;;13.70;54.80;;;;;;5075511;28;20363;-82
2022/01/03 03:38:02;;;;;;;5.70;2.40;;;13.70;54.70;;;;;;5072971;28;20390;-82
2022/01/03 03:40:27;;;;;;;5.88;2.45;;;13.60;55.20;;;;;;5089532;28;20083;-83
2022/01/03 03:42:53;;;;;;;6.22;2.45;;;13.70;55.40;;;;;;5096582;28;20032;-84
2022/01/03 03:45:19;;;;;;;4.82;2.38;;;13.60;55.20;;;;;;5082514;28;20029;-83
2022/01/03 03:47:45;;;;;;;6.35;2.67;;;13.60;54.90;;;;;;5089913;28;20025;-84
2022/01/03 03:50:11;;;;;;;5.72;2.15;;;13.60;54.90;;;;;;5093464;28;20039;-82
2022/01/03 03:52:37;;;;;;;6.60;2.50;;;13.60;55.00;;;;;;5091355;28;20496;-82
2022/01/03 03:55:04;;;;;;;4.40;2.55;;;13.60;54.90;;;;;;5088830;28;20036;-83
2022/01/03 03:57:30;;;;;;;4.80;2.33;;;13.60;55.00;;;;;;5077163;28;20062;-83
2022/01/03 03:59:56;;;;;;;5.32;2.35;;;13.60;55.00;;;;;;5080479;28;20209;-83
2022/01/03 04:02:21;;;;;;;5.68;2.67;;;13.50;55.00;;;;;;5079211;28;20036;-84
2022/01/03 04:04:47;;;;;;;7.07;2.42;;;13.50;55.10;;;;;;5073693;28;20028;-82
2022/01/03 04:07:14;;;;;;;5.60;2.60;;;13.50;55.40;;;;;;5105652;28;20111;-84
2022/01/03 04:09:40;;;;;;;5.47;2.85;;;13.50;55.70;;;;;;5074580;28;20482;-84
2022/01/03 04:12:06;;;;;;;6.22;2.40;;;13.40;55.60;;;;;;5081046;28;20051;-83
2022/01/03 04:14:32;;;;;;;6.65;3.08;;;13.40;55.50;;;;;;5074903;28;20464;-83
2022/01/03 04:16:58;;;;;;;5.28;2.50;;;13.50;55.60;;;;;;5070969;28;20078;-83
2022/01/03 04:19:23;;;;;;;4.85;2.85;;;13.40;55.60;;;;;;5104073;28;20062;-83
2022/01/03 04:21:49;;;;;;;6.15;2.63;;;13.40;55.60;;;;;;5079079;28;20055;-83
2022/01/03 04:24:15;;;;;;;6.35;2.30;;;13.40;56.20;;;;;;5086737;28;20021;-68
2022/01/03 04:26:43;;;;;;;3.92;2.28;;;13.40;55.90;;;;;;5071827;28;20524;-83
2022/01/03 04:29:08;;;;;;;5.93;2.75;;;13.40;55.80;;;;;;5072804;28;20024;-83
2022/01/03 04:31:34;;;;;;;8.00;2.55;;;13.40;55.90;;;;;;5077428;28;20110;-83
2022/01/03 04:34:00;;;;;;;5.63;2.65;;;13.40;56.00;;;;;;5092464;28;20102;-83
2022/01/03 04:36:26;;;;;;;3.78;2.42;;;13.40;56.00;;;;;;5093183;28;20024;-83
2022/01/03 04:38:52;;;;;;;4.72;2.78;;;13.40;56.20;;;;;;5090706;28;20036;-83
2022/01/03 04:41:18;;;;;;;6.15;2.75;;;13.40;56.20;;;;;;5092307;28;20031;-82
2022/01/03 04:43:44;;;;;;;5.93;2.67;;;13.40;56.60;;;;;;5093667;28;20024;-83
2022/01/03 04:46:10;;;;;;;5.40;2.47;;;13.40;56.80;;;;;;5079785;28;20044;-82
2022/01/03 04:48:38;;;;;;;4.13;2.38;;;13.40;57.20;;;;;;5091529;28;20246;-83
2022/01/03 04:51:04;;;;;;;5.35;2.13;;;13.40;57.50;;;;;;5093562;28;20039;-83
2022/01/03 04:53:30;;;;;;;5.10;2.33;;;13.30;57.70;;;;;;5089817;28;20107;-83
2022/01/03 04:55:56;;;;;;;5.75;2.08;;;13.40;57.50;;;;;;5090033;28;20483;-83
2022/01/03 04:58:21;;;;;;;5.18;2.20;;;13.40;58.00;;;;;;5076224;28;20024;-84
2022/01/03 05:00:48;;;;;;;4.93;2.58;;;13.40;58.00;;;;;;5085435;28;20539;-82
2022/01/03 05:03:15;;;;;;;8.48;2.40;;;13.40;58.20;;;;;;5086543;28;20032;-84
2022/01/03 05:05:40;;;;;;;4.50;2.35;;;13.40;58.40;;;;;;5091729;28;20032;-83
2022/01/03 05:08:06;;;;;;;5.60;1.98;;;13.50;58.20;;;;;;5092067;28;20035;-84
2022/01/03 05:10:33;;;;;;;4.45;2.10;;;13.50;58.30;;;;;;5091157;28;20064;-83
2022/01/03 05:12:59;;;;;;;5.38;2.00;;;13.50;58.10;;;;;;5077529;28;20044;-83
2022/01/03 05:15:25;;;;;;;5.35;1.90;;;13.60;57.70;;;;;;5070173;28;20020;-83
2022/01/03 05:17:50;;;;;;;6.93;2.50;;;13.60;57.50;;;;;;5082124;28;20030;-84
2022/01/03 05:20:16;;;;;;;6.00;2.03;;;13.60;57.20;;;;;;5091914;28;20107;-84
2022/01/03 05:22:42;;;;;;;7.00;2.30;;;13.60;57.30;;;;;;5079024;28;20041;-83
2022/01/03 05:25:26;;;;;;;4.65;2.30;;;13.70;57.30;;;;;;5073020;28;20032;-83
2022/01/03 05:27:53;;;;;;;6.20;2.17;;;13.70;57.20;;;;;;5085961;28;20028;-83
2022/01/03 05:30:20;;;;;;;5.10;1.90;;;13.70;57.00;;;;;;5087496;28;20032;-84
2022/01/03 05:32:46;;;;;;;5.25;2.10;;;13.70;57.10;;;;;;5076945;28;20052;-83
2022/01/03 05:35:11;;;;;;;5.00;2.10;;;13.70;56.70;;;;;;5075991;28;20035;-84
2022/01/03 05:37:37;;;;;;;5.22;2.38;;;13.70;56.70;;;;;;5089384;28;20031;-82
2022/01/03 05:40:04;;;;;;;4.30;2.00;;;13.70;56.70;;;;;;5086878;28;20036;-83
2022/01/03 05:42:30;;;;;;;5.10;2.10;;;13.70;56.50;;;;;;5083948;28;20027;-82
2022/01/03 05:44:57;;;;;;;11.02;2.58;;;13.70;56.50;;;;;;5091838;28;20024;-83
2022/01/03 05:47:23;;;;;;;5.00;2.10;;;13.70;56.40;;;;;;5089937;28;20028;-81
2022/01/03 05:49:49;;;;;;;7.20;2.97;;;13.70;56.40;;;;;;5086915;28;20039;-82
2022/01/03 05:52:15;;;;;;;4.97;2.05;;;13.70;56.40;;;;;;5095243;28;20020;-82
2022/01/03 05:54:40;;;;;;;4.95;1.98;;;13.80;56.70;;;;;;5088455;28;20391;-71
2022/01/03 05:57:06;;;;;;;5.72;1.80;;;13.70;56.70;;;;;;5080427;28;20032;-72
2022/01/03 05:59:33;;;;;;;4.63;1.80;;;13.80;56.50;;;;;;5089514;28;20028;-70
2022/01/03 06:01:59;;;;;;;4.43;1.90;;;13.80;56.30;;;;;;5083380;28;20040;-73
2022/01/03 06:04:37;;;;;;;3.55;1.88;;;13.80;56.20;;;;;;5073797;28;20039;-70
2022/01/03 06:07:07;;;;;;;3.33;1.55;;;13.80;56.10;;;;;;5092213;28;20095;-71
2022/01/03 06:09:33;;;;;;;5.90;1.98;;;13.90;56.10;;;;;;5085924;28;20028;-73
2022/01/03 06:11:59;;;;;;;8.85;1.90;;;13.90;56.40;;;;;;5091565;28;20071;-72
2022/01/03 06:14:25;;;;;;;4.78;1.70;;;13.90;56.20;;;;;;5081364;28;20061;-72
2022/01/03 06:16:51;;;;;;;7.43;1.90;;;13.90;56.10;;;;;;5067434;28;20112;-73
2022/01/03 06:19:18;;;;;;;4.47;1.50;;;13.90;56.10;;;;;;5073883;28;20101;-73
2022/01/03 06:21:45;;;;;;;8.88;2.05;;;13.90;56.10;;;;;;5074104;28;20505;-71
2022/01/03 06:24:13;;;;;;;4.97;1.77;;;13.90;56.10;;;;;;5074226;28;20071;-72
2022/01/03 06:26:41;;;;;;;4.25;1.80;;;13.90;55.70;;;;;;5075676;28;20031;-70
2022/01/03 06:29:08;;;;;;;4.50;1.90;;;13.90;55.80;;;;;;5083881;28;20388;-72
2022/01/03 06:31:34;;;;;;;6.70;2.08;;;13.90;55.90;;;;;;5073876;28;20495;-73
2022/01/03 06:34:00;;;;;;;7.57;2.17;;;13.90;56.00;;;;;;5082672;28;20032;-74
2022/01/03 06:36:27;;;;;;;4.18;2.00;;;13.90;56.20;;;;;;5081098;28;20035;-75
2022/01/03 06:38:53;;;;;;;5.72;1.83;;;13.90;56.40;;;;;;5075050;28;20046;-73
2022/01/03 06:41:19;;;;;;;4.18;2.00;;;13.90;56.50;;;;;;5085524;28;20052;-74
2022/01/03 06:43:45;;;;;;;4.95;2.22;;;13.90;55.80;;;;;;5095114;28;20097;-74
2022/01/03 06:46:11;;;;;;;5.65;2.15;;;13.90;56.30;;;;;;5092923;28;20511;-73
2022/01/03 06:48:36;;;;;;;5.72;1.98;;;13.90;56.10;;;;;;5087334;28;20121;-72
2022/01/03 06:51:02;;;;;;;4.28;2.30;;;13.80;56.60;;;;;;5091297;28;20468;-75
2022/01/03 06:53:28;;;;;;;6.15;2.10;;;13.90;56.20;;;;;;5093092;28;20048;-73
2022/01/03 06:55:54;;;;;;;4.55;1.80;;;13.90;56.60;;;;;;5090799;28;20101;-74
2022/01/03 06:58:20;;;;;;;5.20;2.20;;;13.80;56.90;;;;;;5079692;28;20501;-73
2022/01/03 07:01:04;;;;;;;5.43;1.95;;;13.80;56.90;;;;;;5077840;28;20030;-74
2022/01/03 07:03:30;;;;;;;6.38;2.67;;;13.80;57.10;;;;;;5070777;28;20028;-72
2022/01/03 07:05:55;;;;;;;10.35;2.50;;;13.80;56.90;;;;;;5073726;28;20024;-75
2022/01/03 07:08:21;;;;;;;7.70;2.05;;;13.80;56.60;;;;;;5083839;28;20028;-75
2022/01/03 07:10:48;;;;;;;5.43;1.88;;;13.80;56.60;;;;;;5078977;28;20181;-74
2022/01/03 07:13:15;;;;;;;5.97;2.08;;;13.90;56.50;;;;;;5073740;28;20029;-74
2022/01/03 07:21:08;;;;;;;5.72;2.10;;;14.00;56.90;;;;;;5075018;28;20046;-75
2022/01/03 07:23:34;;;;;;;4.80;2.35;;;14.10;56.80;;;;;;5082581;28;20107;-73
2022/01/03 07:26:00;;;;;;;6.10;2.03;;;14.20;56.70;;;;;;5083767;28;20396;-73
2022/01/03 07:28:26;;;;;;;7.68;2.30;;;14.20;56.40;;;;;;5090588;28;20024;-73
2022/01/03 07:30:52;;;;;;;5.85;2.05;;;14.20;56.20;;;;;;5073636;28;20147;-75
2022/01/03 07:33:17;;;;;;;4.63;2.22;;;14.30;55.80;;;;;;5073660;28;20111;-75
2022/01/03 07:35:43;;;;;;;6.05;2.30;;;14.30;55.80;;;;;;5071550;28;20487;-74
2022/01/03 07:38:09;;;;;;;3.70;1.75;;;14.30;55.80;;;;;;5073081;28;20028;-76
2022/01/03 07:40:35;;;;;;;7.60;2.00;;;14.40;56.00;;;;;;5074062;28;20032;-77
2022/01/03 07:43:01;;;;;;;7.03;2.30;;;14.40;55.80;;;;;;5090083;28;20028;-74
2022/01/03 07:45:27;;;;;;;6.38;2.42;;;14.40;56.40;;;;;;5071591;28;20033;-75
2022/01/03 07:47:53;;;;;;;7.75;2.45;;;14.40;55.90;;;;;;5070977;28;20472;-75
2022/01/03 07:50:19;;;;;;;6.45;2.30;;;14.50;55.80;;;;;;5071329;28;20037;-74
2022/01/03 07:52:45;;;;;;;6.60;2.33;;;14.50;55.50;;;;;;5077675;28;20028;-73
2022/01/03 07:55:12;;;;;;;7.93;2.35;;;14.50;55.60;;;;;;5072514;28;20074;-73
2022/01/03 07:57:39;;;;;;;5.60;2.55;;;14.50;55.60;;;;;;5071455;28;20442;-73
2022/01/03 08:00:08;;;;;;;6.93;2.28;;;14.50;55.60;;;;;;5072375;28;20036;-73
2022/01/03 08:02:34;;;;;;;6.53;2.15;;;14.60;55.80;;;;;;5055819;28;20036;-72
2022/01/03 08:05:03;;;;;;;8.13;2.67;;;14.50;56.10;;;;;;5071719;28;20099;-75
2022/01/03 08:07:29;;;;;;;6.50;2.47;;;14.50;56.00;;;;;;5070799;28;20469;-75
2022/01/03 08:09:54;;;;;;;7.47;2.42;;;14.60;55.90;;;;;;5071839;28;20131;-73
2022/01/03 08:12:20;;;;;;;7.40;2.70;;;14.60;55.80;;;;;;5071339;28;20067;-76
2022/01/03 08:14:46;;;;;;;6.05;2.22;;;14.50;55.80;;;;;;5072510;28;20466;-74
2022/01/03 08:17:12;;;;;;;8.43;2.50;;;14.60;56.10;;;;;;5067752;28;20105;-75
2022/01/03 08:19:37;;;;;;;3.78;1.95;;;14.50;56.20;;;;;;5072533;28;20461;-73
2022/01/03 08:22:03;;;;;;;5.28;2.13;;;14.50;56.40;;;;;;5065215;28;20039;-75
2022/01/03 08:24:29;;;;;;;6.28;2.25;;;14.50;56.60;;;;;;5072480;28;20049;-72
2022/01/03 08:26:55;;;;;;;7.07;2.28;;;14.50;56.60;;;;;;5071804;28;20380;-70
2022/01/03 08:29:21;;;;;;;5.93;2.00;;;14.40;56.70;;;;;;5072608;28;20388;-74
2022/01/03 08:31:47;;;;;;;6.70;2.50;;;14.50;57.40;;;;;;5070821;28;20040;-74
2022/01/03 08:34:13;;;;;;;6.70;2.30;;;14.40;56.90;;;;;;5072618;28;20021;-75
2022/01/03 08:36:39;;;;;;;6.82;2.20;;;14.50;56.70;;;;;;5071114;28;20028;-73
2022/01/03 08:39:06;;;;;;;7.72;2.80;;;14.60;56.70;;;;;;5073083;28;20032;-76
2022/01/03 08:41:31;;;;;;;5.18;2.08;;;14.50;56.60;;;;;;5070403;28;20103;-74
2022/01/03 08:43:57;;;;;;;8.52;2.72;;;14.50;56.80;;;;;;5070343;28;20056;-72
2022/01/03 08:46:24;;;;;;;7.00;2.58;;;14.50;56.90;;;;;;5070488;28;20036;-73
2022/01/03 08:48:51;;;;;;;4.97;2.05;;;14.50;56.70;;;;;;5069599;28;20119;-73
2022/01/03 08:51:16;;;;;;;6.07;2.25;;;14.50;56.70;;;;;;5072262;28;20024;-73
2022/01/03 08:53:42;;;;;;;6.40;2.30;;;14.50;56.20;;;;;;5071181;28;20024;-77
2022/01/03 08:56:08;;;;;;;4.75;1.85;;;14.50;56.40;;;;;;5070921;28;20082;-74
2022/01/03 08:58:53;;;;;;;9.02;1.90;;;14.60;56.50;;;;;;5071278;28;20074;-74
2022/01/03 09:01:18;;;;;;;6.50;2.13;;;14.60;56.20;;;;;;5070983;28;20036;-75
2022/01/03 09:03:44;;;;;;;7.53;2.22;;;14.50;55.80;;;;;;5069518;28;20396;-73
2022/01/03 09:06:10;;;;;;;4.60;2.05;;;14.60;55.70;;;;;;5071220;28;20029;-75
2022/01/03 09:08:36;;;;;;;4.50;1.83;;;14.60;55.40;;;;;;5070955;28;20027;-71
2022/01/03 09:11:02;;;;;;;8.27;2.10;;;14.70;55.40;;;;;;5069641;28;20055;-72
2022/01/03 09:13:28;;;;;;;4.72;2.05;;;14.70;55.80;;;;;;5070797;28;20021;-70
2022/01/03 09:15:54;;;;;;;4.15;1.90;;;14.80;55.00;;;;;;5068692;28;20033;-70
2022/01/03 09:18:26;;;;;;;4.43;1.75;;;14.90;54.70;;;;;;5071221;28;20465;-70
2022/01/03 09:20:52;;;;;;;8.00;2.22;;;14.80;55.00;;;;;;5080923;28;20035;-71
2022/01/03 09:23:25;;;;;;;6.38;2.45;;;14.80;54.40;;;;;;5071211;28;20441;-70
2022/01/03 09:28:53;;;;;;;9.23;2.03;;;14.90;54.30;;;;;;5073638;28;20027;-71
2022/01/03 09:31:32;;;;;;;4.60;2.20;;;14.90;54.50;;;;;;5068377;28;20041;-72
2022/01/03 09:34:00;;;;;;;8.00;2.53;;;14.90;54.60;;;;;;5058228;28;20379;-67
2022/01/03 09:36:27;;;;;;;9.88;2.50;;;15.00;54.50;;;;;;5066968;28;20025;-70
2022/01/03 09:38:54;;;;;;;4.10;1.70;;;15.00;54.00;;;;;;5071560;28;20496;-67
2022/01/03 09:41:22;;;;;;;5.00;2.03;;;15.00;53.80;;;;;;5056016;28;20055;-67
2022/01/03 09:44:00;;;;;;;6.07;1.60;;;15.00;53.80;;;;;;5056537;28;20021;-67
2022/01/03 09:46:32;;;;;;;7.60;2.00;;;15.10;53.70;;;;;;5075449;28;20056;-67
2022/01/03 09:48:58;;;;;;;4.75;2.00;;;15.10;53.90;;;;;;5068746;28;20048;-67
2022/01/03 09:51:29;;;;;;;4.07;1.75;;;15.10;53.70;;;;;;5073458;28;20028;-65
2022/01/03 09:54:05;;;;;;;4.45;1.90;;;15.10;53.30;;;;;;5068725;28;20107;-66
2022/01/03 09:56:35;;;;;;;9.80;1.92;;;15.10;53.90;;;;;;5073787;28;20028;-66
2022/01/03 09:59:01;;;;;;;6.68;2.10;;;15.00;54.30;;;;;;5072121;28;20089;-66
2022/01/03 10:01:28;;;;;;;6.55;1.73;;;15.10;54.40;;;;;;5066976;28;20033;-66
2022/01/03 10:03:54;;;;;;;7.32;2.00;;;15.10;53.00;;;;;;5069881;28;20096;-67
2022/01/03 10:06:20;;;;;;;6.10;1.92;;;15.00;53.30;;;;;;5073832;28;20024;-65
2022/01/03 10:08:48;;;;;;;4.97;1.95;;;15.10;54.10;;;;;;5071394;28;20029;-64
2022/01/03 10:11:14;;;;;;;7.53;1.70;;;15.30;53.30;;;;;;5054611;28;20129;-66
2022/01/03 10:13:41;;;;;;;6.18;1.73;;;15.40;53.40;;;;;;5054092;28;20112;-67
2022/01/03 10:16:07;;;;;;;5.93;1.90;;;15.60;53.50;;;;;;5067721;28;20043;-66
2022/01/03 10:18:33;;;;;;;5.00;1.92;;;15.70;53.40;;;;;;5070575;28;20028;-67
2022/01/03 10:21:01;;;;;;;3.58;1.63;;;15.70;52.90;;;;;;5053735;28;20078;-66
2022/01/03 10:23:27;;;;;;;3.50;1.70;;;15.50;53.50;;;;;;5054886;28;20057;-66
2022/01/03 10:25:53;;;;;;;5.07;1.60;;;15.50;53.50;;;;;;5076048;28;20032;-66
2022/01/03 10:28:28;;;;;;;5.07;1.60;;;15.50;53.40;;;;;;5053434;28;20025;-66
2022/01/03 10:30:54;;;;;;;6.10;1.70;;;15.50;53.10;;;;;;5051653;28;20096;-65
2022/01/03 10:33:23;;;;;;;6.93;1.90;;;15.50;52.70;;;;;;5062512;28;20048;-67
2022/01/03 10:35:55;;;;;;;6.07;1.98;;;15.50;53.00;;;;;;5071456;28;20032;-66
2022/01/03 10:38:36;;;;;;;12.60;2.75;;;15.70;52.60;;;;;;5071387;28;20035;-66
2022/01/03 10:41:18;;;;;;;9.07;2.00;;;15.90;52.70;;;;;;5056193;28;20384;-67
2022/01/03 10:43:47;;;;;;;4.03;2.22;;;16.20;51.50;;;;;;5058694;28;20623;-69
2022/01/03 10:46:30;;;;;;;4.63;2.00;;;16.40;52.00;;;;;;5065989;28;20025;-67
2022/01/03 10:49:16;;;;;;;4.18;1.75;;;17.20;49.50;;;;;;5071673;28;20029;-66
2022/01/03 10:51:42;;;;;;;5.95;2.08;;;17.00;49.60;;;;;;5064729;28;20025;-67
2022/01/03 10:54:27;;;;;;;3.75;1.60;;;16.50;50.70;;;;;;5070797;28;20031;-66
2022/01/03 10:56:52;;;;;;;8.65;2.17;;;16.30;51.40;;;;;;5072620;28;20029;-66
2022/01/03 10:59:18;;;;;;;3.45;1.70;;;16.10;51.30;;;;;;5073023;28;20028;-67
2022/01/03 11:01:47;;;;;;;4.00;1.65;;;15.90;52.20;;;;;;5062209;28;20446;-65
2022/01/03 11:04:50;;;;;;;5.25;1.80;;;15.80;52.10;;;;;;5068488;28;20523;-66
2022/01/03 11:10:44;;;;;;;5.25;1.55;;;15.50;52.70;;;;;;5072019;28;20090;-67
2022/01/03 11:13:14;;;;;;;5.25;1.83;;;15.50;53.60;;;;;;5066799;28;20085;-67
2022/01/03 11:15:55;;;;;;;5.88;2.10;;;15.50;52.80;;;;;;5069037;28;20036;-68
2022/01/03 11:18:30;;;;;;;4.82;1.90;;;15.60;53.40;;;;;;5063458;28;20485;-68
2022/01/03 11:21:12;;;;;;;5.65;1.83;;;16.10;52.20;;;;;;5056716;28;20033;-67
2022/01/03 11:23:38;;;;;;;4.28;1.58;;;16.50;50.40;;;;;;5057093;28;20043;-67
2022/01/03 11:26:09;;;;;;;5.55;1.60;;;16.30;50.80;;;;;;5058285;28;20033;-66
2022/01/03 11:28:35;;;;;;;2.63;1.40;;;16.10;51.50;;;;;;5056430;28;20032;-67
2022/01/03 11:31:02;;;;;;;6.43;1.88;;;15.90;51.80;;;;;;5068495;28;20077;-66
2022/01/03 11:33:29;;;;;;;4.05;1.70;;;16.30;52.20;;;;;;5068293;28;20033;-66
2022/01/03 11:35:58;;;;;;;11.60;1.45;;;16.90;51.00;;;;;;5070774;28;20361;-65
2022/01/03 11:38:26;;;;;;;3.25;1.45;;;16.80;49.90;;;;;;5070343;28;20051;-64
2022/01/03 11:40:53;;;;;;;3.55;1.65;;;16.50;50.70;;;;;;5067852;28;20039;-65
2022/01/03 11:43:19;;;;;;;6.00;1.70;;;16.20;51.20;;;;;;5059985;28;20029;-65
2022/01/03 11:45:45;;;;;;;6.25;2.30;;;16.10;51.40;;;;;;5051927;28;20078;-66
2022/01/03 11:48:12;;;;;;;4.00;1.60;;;15.90;51.90;;;;;;5064557;28;20028;-65
2022/01/03 11:50:39;;;;;;;3.33;1.50;;;15.70;52.40;;;;;;5052112;28;20069;-65
2022/01/03 11:53:07;;;;;;;3.95;1.42;;;15.70;52.70;;;;;;5067882;28;20098;-64
2022/01/03 11:55:34;;;;;;;4.35;1.48;;;15.60;52.90;;;;;;5060756;28;20028;-65
2022/01/03 12:03:37;;;;;;;3.17;1.55;;;15.40;53.90;;;;;;5071503;28;20052;-65
2022/01/03 12:06:05;;;;;;;4.20;1.70;;;15.40;54.40;;;;;;5089965;28;20028;-66
2022/01/03 12:08:40;;;;;;;4.35;1.60;;;15.20;54.50;;;;;;5072418;28;20098;-65
2022/01/03 12:11:21;;;;;;;3.08;1.30;;;15.10;54.90;;;;;;5069315;28;20070;-65
2022/01/03 12:13:51;;;;;;;4.80;1.85;;;14.90;55.50;;;;;;5060773;28;20112;-66
2022/01/03 12:16:18;;;;;;;4.28;1.35;;;14.90;55.20;;;;;;5057624;28;20020;-65
2022/01/03 12:19:01;;;;;;;4.03;1.35;;;14.90;55.80;;;;;;5071459;28;20028;-67
2022/01/03 12:21:50;;;;;;;6.18;2.67;;;14.90;55.50;;;;;;5061970;28;20107;-66
2022/01/03 12:24:38;;;;;;;2.40;1.10;;;14.90;55.20;;;;;;5069177;28;20482;-67
2022/01/03 12:27:12;;;;;;;3.47;1.23;;;15.00;55.00;;;;;;5051194;28;20017;-65
2022/01/03 12:29:56;;;;;;;6.53;1.48;;;15.00;54.30;;;;;;5064348;28;20040;-66
2022/01/03 12:32:33;;;;;;;4.18;1.50;;;15.00;54.70;;;;;;5079193;28;20025;-66
2022/01/03 12:35:17;;;;;;;5.32;1.30;;;14.90;55.10;;;;;;5053973;28;20493;-64
2022/01/03 12:37:54;;;;;;;4.18;1.40;;;14.90;55.50;;;;;;5071313;28;20083;-64
2022/01/03 12:40:32;;;;;;;5.72;1.88;;;14.90;55.40;;;;;;5069253;28;20036;-63
2022/01/03 12:43:02;;;;;;;5.40;1.65;;;14.80;55.60;;;;;;5056515;28;20029;-64
2022/01/03 12:45:42;;;;;;;4.72;1.40;;;14.80;56.00;;;;;;5059674;28;20095;-63
2022/01/03 12:48:08;;;;;;;3.85;1.60;;;14.80;56.10;;;;;;5070246;28;20063;-64
2022/01/03 12:50:50;;;;;;;2.63;1.45;;;14.90;55.80;;;;;;5070735;28;20028;-63
2022/01/03 12:53:32;;;;;;;6.38;2.08;;;14.90;56.10;;;;;;5067792;28;20085;-64
2022/01/03 12:56:00;;;;;;;10.38;2.80;;;14.90;56.40;;;;;;5069898;28;20056;-64
2022/01/03 12:58:26;;;;;;;4.47;1.73;;;14.90;56.10;;;;;;5067689;28;20017;-63
2022/01/03 13:00:52;;;;;;;4.82;1.70;;;14.90;56.30;;;;;;5057914;28;20035;-64
2022/01/03 13:03:46;;;;;;;4.63;2.05;;;14.90;56.20;;;;;;5070050;28;20152;-64
2022/01/03 13:06:17;;;;;;;6.07;1.52;;;14.90;56.30;;;;;;5078070;28;20029;-65
2022/01/03 13:08:51;;;;;;;5.32;1.90;;;15.00;56.30;;;;;;5073112;28;20111;-64
2022/01/03 13:11:23;;;;;;;5.40;1.85;;;14.90;56.40;;;;;;5073636;28;20063;-65
2022/01/03 13:13:54;;;;;;;4.60;1.88;;;14.90;56.30;;;;;;5074327;28;20036;-65
2022/01/03 13:16:21;;;;;;;6.28;1.90;;;14.90;56.40;;;;;;5068689;28;20481;-64
2022/01/03 13:18:48;;;;;;;5.18;1.88;;;14.90;56.20;;;;;;5065686;28;20043;-64